createdAt,value
2023-11-04T00:01:58.692Z,210.17
2023-11-04T00:04:28.240Z,211.97
2023-11-04T00:06:56.446Z,209.57
2023-11-04T00:09:37.457Z,211.43
2023-11-04T00:12:13.369Z,208.73
2023-11-04T00:14:42.267Z,209.20
2023-11-04T00:17:10.308Z,218.07
2023-11-04T00:19:39.727Z,207.53
2023-11-04T00:22:08.079Z,209.27
2023-11-04T00:24:36.174Z,210.60
2023-11-04T00:27:04.536Z,211.90
2023-11-04T00:29:32.590Z,209.17
2023-11-04T00:32:00.660Z,209.20
2023-11-04T00:34:28.817Z,212.63
2023-11-04T00:36:58.401Z,207.90
2023-11-04T00:39:26.450Z,209.33
2023-11-04T00:41:54.517Z,208.50
2023-11-04T00:44:22.605Z,209.10
2023-11-04T00:46:50.619Z,208.37
2023-11-04T00:49:18.778Z,210.93
2023-11-04T00:51:47.145Z,208.60
2023-11-04T00:54:16.836Z,207.93
2023-11-04T00:56:44.972Z,206.93
2023-11-04T00:59:13.037Z,206.47
2023-11-04T01:01:41.082Z,207.77
2023-11-04T01:04:09.358Z,207.80
2023-11-04T01:06:37.514Z,204.33
2023-11-04T01:09:06.982Z,207.07
2023-11-04T01:11:36.400Z,208.13
2023-11-04T01:14:04.836Z,206.90
2023-11-04T01:16:32.893Z,205.50
2023-11-04T01:19:01.203Z,206.00
2023-11-04T01:21:29.310Z,206.80
2023-11-04T01:23:57.388Z,205.37
2023-11-04T01:26:25.478Z,206.57
2023-11-04T01:28:54.943Z,205.47
2023-11-04T01:31:22.977Z,205.20
2023-11-04T01:33:51.151Z,205.77
2023-11-04T01:36:19.385Z,207.57
2023-11-04T01:38:47.404Z,204.80
2023-11-04T01:41:17.269Z,205.30
2023-11-04T01:43:45.318Z,205.70
2023-11-04T01:46:19.548Z,209.17
2023-11-04T01:48:48.090Z,206.90
2023-11-04T01:51:16.878Z,207.27
2023-11-04T01:53:49.519Z,206.43
2023-11-04T01:56:21.375Z,206.67
2023-11-04T01:58:50.640Z,204.73
2023-11-04T02:01:20.738Z,204.57
2023-11-04T02:03:48.915Z,205.60
2023-11-04T02:06:17.140Z,205.00
2023-11-04T02:08:45.461Z,204.07
2023-11-04T02:11:13.590Z,203.47
2023-11-04T02:13:41.789Z,204.67
2023-11-04T02:16:10.383Z,202.70
2023-11-04T02:18:40.142Z,204.50
2023-11-04T02:21:09.677Z,205.60
2023-11-04T02:23:37.730Z,205.10
2023-11-04T02:26:06.501Z,203.67
2023-11-04T02:28:34.529Z,202.70
2023-11-04T02:31:02.626Z,202.33
2023-11-04T02:33:30.689Z,201.27
2023-11-04T02:35:58.805Z,205.40
2023-11-04T02:38:28.644Z,201.57
2023-11-04T02:40:56.696Z,202.47
2023-11-04T02:43:24.829Z,200.03
2023-11-04T02:45:52.910Z,200.57
2023-11-04T02:48:21.117Z,201.40
2023-11-04T02:50:49.199Z,201.20
2023-11-04T02:53:17.254Z,201.57
2023-11-04T02:55:46.680Z,200.73
2023-11-04T02:58:14.719Z,199.83
2023-11-04T03:00:42.886Z,198.83
2023-11-04T03:03:11.442Z,199.50
2023-11-04T03:05:39.639Z,199.37
2023-11-04T03:08:07.744Z,199.23
2023-11-04T03:10:35.855Z,198.87
2023-11-04T03:13:05.290Z,198.67
2023-11-04T03:15:33.427Z,200.13
2023-11-04T03:18:01.616Z,198.80
2023-11-04T03:20:29.684Z,198.83
2023-11-04T03:22:57.756Z,201.80
2023-11-04T03:25:25.822Z,200.97
2023-11-04T03:27:53.985Z,199.13
2023-11-04T03:30:23.502Z,198.03
2023-11-04T03:32:51.683Z,198.83
2023-11-04T03:35:19.740Z,197.97
2023-11-04T03:37:48.097Z,197.53
2023-11-04T03:40:17.339Z,199.60
2023-11-04T03:42:45.406Z,198.60
2023-11-04T03:45:13.561Z,196.83
2023-11-04T03:47:43.146Z,197.47
2023-11-04T03:50:11.666Z,197.87
2023-11-04T03:52:39.818Z,198.63
2023-11-04T03:55:09.458Z,198.77
2023-11-04T03:57:37.562Z,199.17
2023-11-04T04:00:06.271Z,199.17
2023-11-04T04:02:35.036Z,196.47
2023-11-04T04:05:04.940Z,197.23
2023-11-04T04:07:33.836Z,196.40
2023-11-04T04:10:02.273Z,195.40
2023-11-04T04:12:30.308Z,195.03
2023-11-04T04:14:58.350Z,195.83
2023-11-04T04:17:26.474Z,196.33
2023-11-04T04:19:54.564Z,196.37
2023-11-04T04:22:25.138Z,195.33
2023-11-04T04:24:53.334Z,195.07
2023-11-04T04:27:21.509Z,195.67
2023-11-04T04:29:50.328Z,196.07
2023-11-04T04:32:18.426Z,196.00
2023-11-04T04:34:46.924Z,194.87
2023-11-04T04:37:15.360Z,195.07
2023-11-04T04:39:46.178Z,194.03
2023-11-04T04:42:14.840Z,195.10
2023-11-04T04:44:43.844Z,194.67
2023-11-04T04:47:11.849Z,196.63
2023-11-04T04:49:39.996Z,195.10
2023-11-04T04:52:08.046Z,194.53
2023-11-04T04:54:36.137Z,194.53
2023-11-04T04:57:06.157Z,195.10
2023-11-04T04:59:35.529Z,194.20
2023-11-04T05:02:04.265Z,193.40
2023-11-04T05:04:34.389Z,192.67
2023-11-04T05:07:02.470Z,193.37
2023-11-04T05:09:30.833Z,195.00
2023-11-04T05:11:58.939Z,193.90
2023-11-04T05:14:29.197Z,195.00
2023-11-04T05:16:57.285Z,194.97
2023-11-04T05:19:25.333Z,195.80
2023-11-04T05:21:53.416Z,195.70
2023-11-04T05:24:21.639Z,194.97
2023-11-04T05:26:49.673Z,196.23
2023-11-04T05:29:17.723Z,202.97
2023-11-04T05:31:47.970Z,195.87
2023-11-04T05:34:16.099Z,196.87
2023-11-04T05:36:45.924Z,196.33
2023-11-04T05:39:14.118Z,195.77
2023-11-04T05:41:42.200Z,196.50
2023-11-04T05:44:10.291Z,196.60
2023-11-04T05:46:38.579Z,195.43
2023-11-04T05:49:08.110Z,196.83
2023-11-04T05:51:37.745Z,195.63
2023-11-04T05:54:05.890Z,195.63
2023-11-04T05:56:33.965Z,194.33
2023-11-04T05:59:03.831Z,195.10
2023-11-04T06:01:32.021Z,194.87
2023-11-04T06:04:00.182Z,195.00
2023-11-04T06:06:29.851Z,194.53
2023-11-04T06:08:58.020Z,194.17
2023-11-04T06:11:26.066Z,195.07
2023-11-04T06:13:55.291Z,197.83
2023-11-04T06:16:23.352Z,194.50
2023-11-04T06:18:51.548Z,195.03
2023-11-04T06:21:20.186Z,194.43
2023-11-04T06:23:49.562Z,197.80
2023-11-04T06:26:23.313Z,196.00
2023-11-04T06:28:51.654Z,194.63
2023-11-04T06:31:22.627Z,196.17
2023-11-04T06:33:51.552Z,196.40
2023-11-04T06:36:19.680Z,195.43
2023-11-04T06:38:49.154Z,195.37
2023-11-04T06:41:18.487Z,196.87
2023-11-04T06:43:47.332Z,194.47
2023-11-04T06:46:17.394Z,196.87
2023-11-04T06:48:45.597Z,195.30
2023-11-04T06:51:19.191Z,201.50
2023-11-04T06:53:48.825Z,195.67
2023-11-04T06:56:17.093Z,196.77
2023-11-04T06:58:45.152Z,197.30
2023-11-04T07:01:16.841Z,195.83
2023-11-04T07:03:46.723Z,196.43
2023-11-04T07:06:15.360Z,194.93
2023-11-04T07:08:44.212Z,194.40
2023-11-04T07:11:14.058Z,195.20
2023-11-04T07:13:42.390Z,203.30
2023-11-04T07:16:13.196Z,197.77
2023-11-04T07:18:41.772Z,195.53
2023-11-04T07:21:10.916Z,194.90
2023-11-04T07:23:39.144Z,197.13
2023-11-04T07:26:08.995Z,195.67
2023-11-04T07:28:38.489Z,196.77
2023-11-04T07:31:08.252Z,195.83
2023-11-04T07:33:37.755Z,197.00
2023-11-04T07:36:06.739Z,196.53
2023-11-04T07:38:35.095Z,196.33
2023-11-04T07:41:03.647Z,197.27
2023-11-04T07:43:33.486Z,196.97
2023-11-04T07:46:03.068Z,196.73
2023-11-04T07:48:31.704Z,196.13
2023-11-04T07:50:59.939Z,199.00
2023-11-04T07:53:28.668Z,201.60
2023-11-04T07:55:57.425Z,201.33
2023-11-04T07:58:25.590Z,200.93
2023-11-04T08:00:54.867Z,200.63
2023-11-04T08:03:25.231Z,198.83
2023-11-04T08:05:53.663Z,202.27
2023-11-04T08:08:21.847Z,198.73
2023-11-04T08:10:49.967Z,201.37
2023-11-04T08:13:19.635Z,201.33
2023-11-04T08:15:47.760Z,200.33
2023-11-04T08:18:16.126Z,198.93
2023-11-04T08:20:46.219Z,201.57
2023-11-04T08:23:14.272Z,201.47
2023-11-04T08:25:43.168Z,198.83
2023-11-04T08:28:11.301Z,199.63
2023-11-04T08:30:42.029Z,216.97
2023-11-04T08:33:10.159Z,203.67
2023-11-04T08:35:38.200Z,199.43
2023-11-04T08:38:07.796Z,198.93
2023-11-04T08:40:35.838Z,199.70
2023-11-04T08:43:03.928Z,198.77
2023-11-04T08:45:32.014Z,197.73
2023-11-04T08:48:00.143Z,198.17
2023-11-04T08:50:30.086Z,199.20
2023-11-04T08:52:58.208Z,198.67
2023-11-04T08:55:27.672Z,199.47
2023-11-04T08:57:56.345Z,196.73
2023-11-04T09:00:24.866Z,198.67
2023-11-04T09:02:53.954Z,198.90
2023-11-04T09:05:28.701Z,200.77
2023-11-04T09:08:01.823Z,199.47
2023-11-04T09:10:31.405Z,200.43
2023-11-04T09:12:59.537Z,201.10
2023-11-04T09:15:28.950Z,200.20
2023-11-04T09:17:57.127Z,201.10
2023-11-04T09:20:25.267Z,200.97
2023-11-04T09:22:55.744Z,199.97
2023-11-04T09:25:24.163Z,200.90
2023-11-04T09:27:53.602Z,201.03
2023-11-04T09:30:23.455Z,201.80
2023-11-04T09:32:51.644Z,200.83
2023-11-04T09:35:19.948Z,202.73
2023-11-04T09:37:47.989Z,203.60
2023-11-04T09:40:16.085Z,201.80
2023-11-04T09:42:45.370Z,203.13
2023-11-04T09:45:16.722Z,202.53
2023-11-04T09:47:45.003Z,203.67
2023-11-04T09:50:13.778Z,204.57
2023-11-04T09:52:43.485Z,203.00
2023-11-04T09:55:13.385Z,204.50
2023-11-04T09:57:42.358Z,204.40
2023-11-04T10:00:11.779Z,204.40
2023-11-04T10:02:41.347Z,204.63
2023-11-04T10:05:10.288Z,205.40
2023-11-04T10:07:38.594Z,205.13
2023-11-04T10:10:19.560Z,206.30
2023-11-04T10:12:56.075Z,206.17
2023-11-04T10:15:24.906Z,205.87
2023-11-04T10:17:54.536Z,206.97
2023-11-04T10:20:23.708Z,207.50
2023-11-04T10:22:51.970Z,207.60
2023-11-04T10:25:20.675Z,207.40
2023-11-04T10:27:49.007Z,207.23
2023-11-04T10:30:17.357Z,206.47
2023-11-04T10:32:50.015Z,209.60
2023-11-04T10:35:23.546Z,208.40
2023-11-04T10:37:56.619Z,206.87
2023-11-04T10:40:25.368Z,211.20
2023-11-04T10:42:59.996Z,208.53
2023-11-04T10:45:32.646Z,208.33
2023-11-04T10:48:02.312Z,209.20
2023-11-04T10:50:36.792Z,209.93
2023-11-04T10:53:13.040Z,207.63
2023-11-04T10:55:48.468Z,209.17
2023-11-04T10:58:24.561Z,211.90
2023-11-04T11:00:53.872Z,207.97
2023-11-04T11:03:23.238Z,209.47
2023-11-04T11:05:55.490Z,210.93
2023-11-04T11:08:24.979Z,210.43
2023-11-04T11:11:01.971Z,210.43
2023-11-04T11:13:34.428Z,211.77
2023-11-04T11:16:02.828Z,210.43
2023-11-04T11:18:31.541Z,212.80
2023-11-04T11:21:11.401Z,214.90
2023-11-04T11:23:40.255Z,214.90
2023-11-04T11:26:12.402Z,216.77
2023-11-04T11:28:41.861Z,215.30
2023-11-04T11:31:12.902Z,217.50
2023-11-04T11:33:42.757Z,217.57
2023-11-04T11:36:16.918Z,219.10
2023-11-04T11:38:45.580Z,217.87
2023-11-04T11:41:15.744Z,217.20
2023-11-04T11:43:45.283Z,220.57
2023-11-04T11:46:13.839Z,219.00
2023-11-04T11:48:45.218Z,223.27
2023-11-04T11:51:18.512Z,218.60
2023-11-04T11:53:48.036Z,220.43
2023-11-04T11:56:16.360Z,222.10
2023-11-04T11:58:46.617Z,221.73
2023-11-04T12:01:14.974Z,223.00
2023-11-04T12:03:43.282Z,221.57
2023-11-04T12:06:12.535Z,224.20
2023-11-04T12:08:42.022Z,222.87
2023-11-04T12:11:10.519Z,223.60
2023-11-04T12:13:38.584Z,220.53
2023-11-04T12:16:09.896Z,223.37
2023-11-04T12:18:38.472Z,227.27
2023-11-04T12:21:07.305Z,223.03
2023-11-04T12:23:36.293Z,223.67
2023-11-04T12:26:06.617Z,222.87
2023-11-04T12:28:38.687Z,226.03
2023-11-04T12:31:07.791Z,224.20
2023-11-04T12:33:37.415Z,223.90
2023-11-04T12:36:08.152Z,224.33
2023-11-04T12:38:36.322Z,224.43
2023-11-04T12:41:06.744Z,224.57
2023-11-04T12:43:35.410Z,223.47
2023-11-04T12:46:04.571Z,223.90
2023-11-04T12:48:33.092Z,224.70
2023-11-04T12:51:01.339Z,225.30
2023-11-04T12:53:31.843Z,222.20
2023-11-04T12:55:59.929Z,220.90
2023-11-04T12:58:29.574Z,218.17
2023-11-04T13:00:57.662Z,219.13
2023-11-04T13:03:27.123Z,217.70
2023-11-04T13:05:55.337Z,218.00
2023-11-04T13:08:23.958Z,218.03
2023-11-04T13:10:53.762Z,215.17
2023-11-04T13:13:21.832Z,216.47
2023-11-04T13:15:51.229Z,230.33
2023-11-04T13:18:19.491Z,215.53
2023-11-04T13:20:47.545Z,216.37
2023-11-04T13:23:17.803Z,214.80
2023-11-04T13:25:47.270Z,214.63
2023-11-04T13:28:15.431Z,217.03
2023-11-04T13:30:43.562Z,216.17
2023-11-04T13:33:13.324Z,218.30
2023-11-04T13:35:41.764Z,216.53
2023-11-04T13:38:09.945Z,217.03
2023-11-04T13:40:38.002Z,220.30
2023-11-04T13:43:06.831Z,216.77
2023-11-04T13:45:34.983Z,217.73
2023-11-04T13:48:04.157Z,230.13
2023-11-04T13:50:34.739Z,218.00
2023-11-04T13:53:02.787Z,218.17
2023-11-04T13:55:30.823Z,219.97
2023-11-04T13:57:59.023Z,220.07
2023-11-04T14:00:27.082Z,222.37
2023-11-04T14:02:55.298Z,220.03
2023-11-04T14:05:23.703Z,220.23
2023-11-04T14:07:53.550Z,219.60
2023-11-04T14:10:21.824Z,219.80
2023-11-04T14:12:50.635Z,220.87
2023-11-04T14:15:18.932Z,221.17
2023-11-04T14:17:47.024Z,216.93
2023-11-04T14:20:16.995Z,217.20
2023-11-04T14:22:45.518Z,217.37
2023-11-04T14:25:15.065Z,218.80
2023-11-04T14:27:43.106Z,218.17
2023-11-04T14:30:12.429Z,217.87
2023-11-04T14:32:40.706Z,216.00
2023-11-04T14:35:09.698Z,216.60
2023-11-04T14:37:37.744Z,215.97
2023-11-04T14:40:10.666Z,218.23
2023-11-04T14:42:40.262Z,212.63
2023-11-04T14:45:09.767Z,213.83
2023-11-04T14:47:37.880Z,214.20
2023-11-04T14:50:06.909Z,213.97
2023-11-04T14:52:35.651Z,211.77
2023-11-04T14:55:03.732Z,215.80
2023-11-04T14:57:31.853Z,214.20
2023-11-04T15:00:01.448Z,213.13
2023-11-04T15:02:29.588Z,212.90
2023-11-04T15:04:57.957Z,215.27
2023-11-04T15:07:26.028Z,214.17
2023-11-04T15:09:54.187Z,211.50
2023-11-04T15:12:23.674Z,211.80
2023-11-04T15:14:51.880Z,217.47
2023-11-04T15:17:21.467Z,212.47
2023-11-04T15:19:49.505Z,212.20
2023-11-04T15:22:17.569Z,213.20
2023-11-04T15:24:46.510Z,220.33
2023-11-04T15:27:14.605Z,209.47
2023-11-04T15:29:42.686Z,211.33
2023-11-04T15:32:10.783Z,209.90
2023-11-04T15:34:40.399Z,209.77
2023-11-04T15:37:09.981Z,209.73
2023-11-04T15:39:38.570Z,210.23
2023-11-04T15:42:07.552Z,209.83
2023-11-04T15:44:36.245Z,209.87
2023-11-04T15:47:04.470Z,209.47
2023-11-04T15:49:32.500Z,208.57
2023-11-04T15:52:02.025Z,211.10
2023-11-04T15:54:30.077Z,220.50
2023-11-04T15:56:58.123Z,209.33
2023-11-04T15:59:26.221Z,211.10
2023-11-04T16:01:54.330Z,214.90
2023-11-04T16:04:22.414Z,209.47
2023-11-04T16:06:50.532Z,209.27
2023-11-04T16:09:20.390Z,211.83
2023-11-04T16:11:48.468Z,210.20
2023-11-04T16:14:16.527Z,218.57
2023-11-04T16:16:44.641Z,210.43
2023-11-04T16:19:12.727Z,210.30
2023-11-04T16:21:45.102Z,208.13
2023-11-04T16:24:13.281Z,211.97
2023-11-04T16:26:42.729Z,209.43
2023-11-04T16:29:11.891Z,209.07
2023-11-04T16:31:39.921Z,209.40
2023-11-04T16:34:08.535Z,207.83
2023-11-04T16:36:37.021Z,209.13
2023-11-04T16:39:07.961Z,211.90
2023-11-04T16:41:37.330Z,213.27
2023-11-04T16:44:06.970Z,210.47
2023-11-04T16:46:36.453Z,208.17
2023-11-04T16:49:04.579Z,209.23
2023-11-04T16:51:32.719Z,207.47
2023-11-04T16:54:01.107Z,209.00
2023-11-04T16:56:29.205Z,210.67
2023-11-04T16:58:57.285Z,207.73
2023-11-04T17:01:28.381Z,206.97
2023-11-04T17:03:56.596Z,208.33
2023-11-04T17:06:24.744Z,206.80
2023-11-04T17:08:52.838Z,206.77
2023-11-04T17:11:24.553Z,207.67
2023-11-04T17:13:52.688Z,208.60
2023-11-04T17:16:20.811Z,209.07
2023-11-04T17:18:50.861Z,214.87
2023-11-04T17:21:19.606Z,204.73
2023-11-04T17:23:47.676Z,205.07
2023-11-04T17:26:15.697Z,204.73
2023-11-04T17:28:43.776Z,205.00
2023-11-04T17:31:12.425Z,204.80
2023-11-04T17:33:40.585Z,206.30
2023-11-04T17:36:11.329Z,203.40
2023-11-04T17:38:39.384Z,207.40
2023-11-04T17:41:07.629Z,204.27
2023-11-04T17:43:35.697Z,204.63
2023-11-04T17:46:04.184Z,204.00
2023-11-04T17:48:36.982Z,207.83
2023-11-04T17:51:05.758Z,204.43
2023-11-04T17:53:35.236Z,204.90
2023-11-04T17:56:05.234Z,206.00
2023-11-04T17:58:33.297Z,205.47
2023-11-04T18:01:01.364Z,203.53
2023-11-04T18:03:29.849Z,204.60
2023-11-04T18:05:57.950Z,204.07
2023-11-04T18:08:25.949Z,202.90
2023-11-04T18:10:55.521Z,206.03
2023-11-04T18:13:23.604Z,205.97
2023-11-04T18:15:51.723Z,204.33
2023-11-04T18:18:20.177Z,206.67
2023-11-04T18:20:48.329Z,206.80
2023-11-04T18:23:16.430Z,206.90
2023-11-04T18:25:44.447Z,204.37
2023-11-04T18:28:14.058Z,203.90
2023-11-04T18:30:42.134Z,210.50
2023-11-04T18:33:10.177Z,204.70
2023-11-04T18:35:38.291Z,205.33
2023-11-04T18:38:06.376Z,205.30
2023-11-04T18:40:34.446Z,205.60
2023-11-04T18:43:04.453Z,205.27
2023-11-04T18:45:33.955Z,205.40
2023-11-04T18:48:02.655Z,204.70
2023-11-04T18:50:32.195Z,205.87
2023-11-04T18:53:00.252Z,202.90
2023-11-04T18:55:28.339Z,206.47
2023-11-04T18:57:56.394Z,205.33
2023-11-04T19:00:25.629Z,205.07
2023-11-04T19:02:55.984Z,205.70
2023-11-04T19:05:24.246Z,205.33
2023-11-04T19:07:52.382Z,204.20
2023-11-04T19:10:20.488Z,209.37
2023-11-04T19:12:49.921Z,211.73
2023-11-04T19:15:18.242Z,206.83
2023-11-04T19:17:46.456Z,203.77
2023-11-04T19:20:16.514Z,206.87
2023-11-04T19:22:44.676Z,204.60
2023-11-04T19:25:13.294Z,203.53
2023-11-04T19:27:41.411Z,204.30
2023-11-04T19:30:11.335Z,206.77
2023-11-04T19:32:39.998Z,206.53
2023-11-04T19:35:08.729Z,204.80
2023-11-04T19:37:38.632Z,209.03
2023-11-04T19:40:07.929Z,206.07
2023-11-04T19:42:36.125Z,204.70
2023-11-04T19:45:04.486Z,206.17
2023-11-04T19:47:32.644Z,203.13
2023-11-04T19:50:01.724Z,204.13
2023-11-04T19:52:29.834Z,204.37
2023-11-04T19:55:00.366Z,205.83
2023-11-04T19:57:28.511Z,205.70
2023-11-04T19:59:56.572Z,203.83
2023-11-04T20:02:24.622Z,206.47
2023-11-04T20:04:53.324Z,204.13
2023-11-04T20:07:21.515Z,205.30
2023-11-04T20:09:49.634Z,204.97
2023-11-04T20:12:19.720Z,208.90
2023-11-04T20:14:48.180Z,203.60
2023-11-04T20:17:16.330Z,204.50
2023-11-04T20:19:46.350Z,206.97
2023-11-04T20:22:15.215Z,214.60
2023-11-04T20:24:48.077Z,206.77
2023-11-04T20:27:16.744Z,212.03
2023-11-04T20:29:46.206Z,206.33
2023-11-04T20:32:14.441Z,210.17
2023-11-04T20:34:43.152Z,206.53
2023-11-04T20:37:12.066Z,208.90
2023-11-04T20:39:40.247Z,207.03
2023-11-04T20:42:09.897Z,204.83
2023-11-04T20:44:38.297Z,205.87
2023-11-04T20:47:07.705Z,206.87
2023-11-04T20:49:35.749Z,206.50
2023-11-04T20:52:03.939Z,206.17
2023-11-04T20:54:33.269Z,206.27
2023-11-04T20:57:01.322Z,206.17
2023-11-04T20:59:29.654Z,205.93
2023-11-04T21:01:57.702Z,207.60
2023-11-04T21:04:27.348Z,206.57
2023-11-04T21:06:57.023Z,205.90
2023-11-04T21:09:25.487Z,205.80
2023-11-04T21:11:53.638Z,208.90
2023-11-04T21:14:22.547Z,206.50
2023-11-04T21:16:51.015Z,206.47
2023-11-04T21:19:19.114Z,206.33
2023-11-04T21:21:49.190Z,204.60
2023-11-04T21:24:17.313Z,203.43
2023-11-04T21:26:45.451Z,203.60
2023-11-04T21:29:13.885Z,204.33
2023-11-04T21:31:41.994Z,204.77
2023-11-04T21:34:10.815Z,205.53
2023-11-04T21:36:39.092Z,202.57
2023-11-04T21:39:08.571Z,201.17
2023-11-04T21:41:36.606Z,201.30
2023-11-04T21:44:06.076Z,202.47
2023-11-04T21:46:34.110Z,205.67
2023-11-04T21:49:02.218Z,201.07
2023-11-04T21:51:30.283Z,204.30
2023-11-04T21:53:58.361Z,202.63
2023-11-04T21:56:28.030Z,201.93
2023-11-04T21:58:56.063Z,202.73
2023-11-04T22:01:26.721Z,201.97
2023-11-04T22:03:55.438Z,202.43
2023-11-04T22:06:23.507Z,204.50
2023-11-04T22:08:51.582Z,201.00
2023-11-04T22:11:19.784Z,202.23
2023-11-04T22:13:49.304Z,200.87
2023-11-04T22:16:17.685Z,203.47
2023-11-04T22:18:46.174Z,202.20
2023-11-04T22:21:17.259Z,200.67
2023-11-04T22:23:46.592Z,199.90
2023-11-04T22:26:14.680Z,204.97
2023-11-04T22:28:42.761Z,201.03
2023-11-04T22:31:13.217Z,200.47
2023-11-04T22:33:41.331Z,203.13
2023-11-04T22:36:09.694Z,200.10
2023-11-04T22:38:37.699Z,201.10
2023-11-04T22:41:06.306Z,201.30
2023-11-04T22:43:34.408Z,200.83
2023-11-04T22:46:02.492Z,200.50
2023-11-04T22:48:32.023Z,201.80
2023-11-04T22:51:00.260Z,202.60
2023-11-04T22:53:28.313Z,202.30
2023-11-04T22:55:56.688Z,200.83
2023-11-04T22:58:25.281Z,202.07
2023-11-04T23:00:53.411Z,202.10
2023-11-04T23:03:21.664Z,200.40
2023-11-04T23:05:51.417Z,200.70
2023-11-04T23:08:19.531Z,202.33
2023-11-04T23:10:47.702Z,202.00
2023-11-04T23:13:15.850Z,200.03
2023-11-04T23:15:43.914Z,203.87
2023-11-04T23:18:12.050Z,202.23
2023-11-04T23:20:40.178Z,202.30
2023-11-04T23:23:09.701Z,202.77
2023-11-04T23:25:37.836Z,201.13
2023-11-04T23:28:06.197Z,201.30
2023-11-04T23:30:34.317Z,200.20
2023-11-04T23:33:03.342Z,202.40
2023-11-04T23:35:31.435Z,202.33
2023-11-04T23:37:59.462Z,202.57
2023-11-04T23:40:28.902Z,202.53
2023-11-04T23:42:56.999Z,202.97
2023-11-04T23:45:25.520Z,203.53
2023-11-04T23:47:55.251Z,201.80
2023-11-04T23:50:23.303Z,207.67
2023-11-04T23:52:51.357Z,202.53
2023-11-04T23:55:19.576Z,202.27
2023-11-04T23:57:49.062Z,204.77
